Time;durP1;ratioP1;P1;durP2;ratioP2;P2;SDS_P1;SDS_P2;PMS_P1;PMS_P2;Temp;Humidity;BMP_temperature;BMP_pressure;BME280_temperature;BME280_humidity;BME280_pressure;Samples;Min_cycle;Max_cycle;Signal;HPM_P1;HPM_P2
2022/02/09 00:00:56;;;;;;;2.13;1.80;;;4.70;96.30;;;;;;5035162;28;20407;-81
2022/02/09 00:03:25;;;;;;;2.50;2.00;;;4.70;96.30;;;;;;5033571;28;20447;-76
2022/02/09 00:08:17;;;;;;;5.33;2.00;;;4.80;96.30;;;;;;5036107;28;20457;-77
2022/02/09 00:10:46;;;;;;;2.47;1.80;;;4.80;96.30;;;;;;5034273;28;20172;-77
2022/02/09 00:15:55;;;;;;;2.20;2.00;;;4.80;96.30;;;;;;5035727;28;20740;-76
2022/02/09 00:24:13;;;;;;;3.53;1.83;;;4.80;96.30;;;;;;4981599;28;20470;-76
2022/02/09 00:37:59;;;;;;;2.00;1.80;;;4.70;96.30;;;;;;5013343;28;20422;-76
2022/02/09 00:43:40;;;;;;;2.40;2.20;;;4.70;96.30;;;;;;5013471;28;20391;-76
2022/02/09 05:01:39;;;;;;;3.00;2.20;;;4.80;96.30;;;;;;5689937;23;21029;-82
2022/02/09 05:43:21;;;;;;;1.73;1.60;;;4.90;96.30;;;;;;5186948;23;20989;-74
2022/02/09 05:46:27;;;;;;;4.03;2.10;;;4.90;96.30;;;;;;5051015;28;20411;-78
2022/02/09 05:51:44;;;;;;;4.77;3.37;;;4.90;96.30;;;;;;5052121;28;20453;-78
2022/02/09 05:56:42;;;;;;;1.77;1.63;;;4.90;96.30;;;;;;5025970;28;20973;-82
2022/02/09 06:01:34;;;;;;;1.87;1.40;;;4.90;96.30;;;;;;5032414;28;20430;-82
2022/02/09 06:04:00;;;;;;;5.10;1.60;;;4.90;96.30;;;;;;5015167;28;20417;-81
2022/02/09 06:06:25;;;;;;;2.30;2.10;;;4.90;96.30;;;;;;5032514;28;20172;-81
2022/02/09 06:08:51;;;;;;;4.50;1.40;;;4.90;96.30;;;;;;5032588;28;20255;-81
2022/02/09 06:11:40;;;;;;;3.90;3.20;;;4.90;96.30;;;;;;5014914;28;20246;-80
2022/02/09 06:14:21;;;;;;;2.00;1.80;;;4.90;96.30;;;;;;5033734;28;20675;-80
2022/02/09 06:19:49;;;;;;;2.40;1.70;;;4.90;96.30;;;;;;5035359;28;20405;-80
2022/02/09 06:22:15;;;;;;;1.83;1.73;;;5.00;96.30;;;;;;5034389;28;20419;-79
2022/02/09 06:24:42;;;;;;;4.80;1.63;;;4.90;96.30;;;;;;5027520;28;20414;-80
2022/02/09 06:27:11;;;;;;;1.50;1.40;;;4.90;96.30;;;;;;5036676;28;20175;-79
2022/02/09 06:29:39;;;;;;;1.57;1.47;;;4.90;96.30;;;;;;5057051;28;20421;-80
2022/02/09 06:32:08;;;;;;;1.63;1.53;;;4.90;96.30;;;;;;5039105;28;20442;-78
2022/02/09 06:34:36;;;;;;;2.10;1.43;;;4.90;96.30;;;;;;5046408;28;20461;-79
2022/02/09 06:37:11;;;;;;;1.63;1.53;;;4.90;96.30;;;;;;5019801;28;20422;-78
2022/02/09 06:39:37;;;;;;;2.13;2.03;;;4.90;96.30;;;;;;5035588;28;20542;-79
2022/02/09 06:42:03;;;;;;;2.23;1.87;;;4.90;96.30;;;;;;5034971;28;20451;-79
2022/02/09 06:44:31;;;;;;;1.70;1.60;;;4.90;96.30;;;;;;5034854;28;20191;-77
2022/02/09 06:46:56;;;;;;;1.30;1.20;;;4.90;96.30;;;;;;5019054;28;20446;-79
2022/02/09 06:49:22;;;;;;;4.30;1.70;;;4.90;96.30;;;;;;5026972;28;20512;-79
2022/02/09 06:51:48;;;;;;;1.73;1.63;;;4.90;96.30;;;;;;5040587;28;20204;-78
2022/02/09 06:54:29;;;;;;;1.50;1.40;;;4.90;96.30;;;;;;5035140;28;20208;-79
2022/02/09 06:59:28;;;;;;;1.90;1.80;;;;;;;;;;5034694;28;20467;-75
2022/02/09 07:01:54;;;;;;;2.30;1.53;;;4.90;96.30;;;;;;5018491;28;20196;-76
2022/02/09 07:04:20;;;;;;;2.27;2.07;;;4.90;96.30;;;;;;5015792;28;20423;-79
2022/02/09 07:06:46;;;;;;;2.00;1.90;;;4.90;96.30;;;;;;5032371;28;20421;-79
2022/02/09 07:09:11;;;;;;;2.90;2.00;;;4.90;96.30;;;;;;5017824;28;20539;-80
2022/02/09 07:11:37;;;;;;;2.03;1.83;;;4.90;96.30;;;;;;5015393;28;20589;-80
2022/02/09 07:14:03;;;;;;;2.03;1.83;;;4.90;96.30;;;;;;5035465;28;20200;-78
2022/02/09 07:16:31;;;;;;;2.27;2.07;;;;;;;;;;5014214;28;20206;-71
2022/02/09 07:18:57;;;;;;;2.50;1.53;;;4.90;96.30;;;;;;5031429;28;20989;-69
2022/02/09 07:21:27;;;;;;;1.87;1.30;;;4.90;96.30;;;;;;5038681;28;20521;-68
2022/02/09 07:23:55;;;;;;;1.80;1.70;;;4.90;96.30;;;;;;5027817;28;20191;-69
2022/02/09 07:26:42;;;;;;;2.30;1.83;;;4.90;96.30;;;;;;5031711;28;20411;-68
2022/02/09 07:29:06;;;;;;;2.73;1.90;;;4.90;96.30;;;;;;5030133;28;20922;-69
2022/02/09 07:31:32;;;;;;;1.97;1.73;;;4.90;96.30;;;;;;5033559;28;20441;-69
2022/02/09 07:33:59;;;;;;;2.73;1.70;;;4.90;96.30;;;;;;5031583;28;20701;-70
2022/02/09 07:36:28;;;;;;;2.23;2.03;;;4.90;96.30;;;;;;5032048;28;20577;-68
2022/02/09 07:38:54;;;;;;;3.07;1.90;;;4.90;96.30;;;;;;5007350;28;20493;-69
2022/02/09 07:41:19;;;;;;;2.13;1.93;;;4.90;96.30;;;;;;5026160;28;21137;-69
2022/02/09 07:44:02;;;;;;;1.67;1.57;;;4.90;96.30;;;;;;5030905;28;20561;-69
2022/02/09 07:49:22;;;;;;;1.90;1.80;;;4.90;96.30;;;;;;5015973;28;21167;-69
2022/02/09 07:52:07;;;;;;;2.73;2.50;;;4.90;96.30;;;;;;5029558;28;21003;-69
2022/02/09 07:54:32;;;;;;;2.17;1.80;;;4.90;96.30;;;;;;5024132;28;20517;-70
2022/02/09 07:56:58;;;;;;;2.53;2.33;;;4.90;96.30;;;;;;5031978;28;20813;-70
2022/02/09 07:59:24;;;;;;;2.57;2.37;;;4.90;96.30;;;;;;5026329;28;20676;-70
2022/02/09 08:01:51;;;;;;;5.17;2.47;;;4.90;96.30;;;;;;5021827;28;20283;-70
2022/02/09 08:04:17;;;;;;;2.10;1.90;;;;;;;;;;5027726;28;20458;-71
2022/02/09 08:06:43;;;;;;;2.40;2.00;;;5.00;96.30;;;;;;5032752;28;20442;-70
2022/02/09 08:09:16;;;;;;;2.63;2.30;;;4.90;96.30;;;;;;5031246;28;20466;-69
2022/02/09 08:11:52;;;;;;;3.73;1.93;;;4.90;96.30;;;;;;5031536;28;20196;-69
2022/02/09 08:27:38;;;;;;;2.20;2.00;;;5.00;96.30;;;;;;5029377;28;20569;-71
2022/02/09 08:32:56;;;;;;;3.93;2.07;;;5.00;96.30;;;;;;5030200;28;20845;-71
2022/02/09 08:35:22;;;;;;;2.67;2.07;;;5.00;96.30;;;;;;5030507;28;20423;-70
2022/02/09 08:37:48;;;;;;;1.97;1.80;;;5.00;96.30;;;;;;5031732;28;20494;-68
2022/02/09 08:40:18;;;;;;;1.80;1.70;;;5.00;96.30;;;;;;5029060;28;20786;-70
2022/02/09 08:42:44;;;;;;;1.73;1.63;;;5.00;96.30;;;;;;5031845;28;20652;-71
2022/02/09 08:45:09;;;;;;;2.33;2.13;;;5.00;96.30;;;;;;5028809;28;20918;-71
2022/02/09 08:47:35;;;;;;;3.23;2.70;;;5.00;96.30;;;;;;5020711;28;20426;-69
2022/02/09 08:50:02;;;;;;;3.30;2.37;;;5.00;96.30;;;;;;5031175;28;20176;-69
2022/02/09 08:52:27;;;;;;;1.60;1.50;;;5.00;96.30;;;;;;5010958;28;20732;-69
2022/02/09 08:54:54;;;;;;;2.73;2.20;;;5.00;96.30;;;;;;5031081;28;20415;-73
2022/02/09 08:57:21;;;;;;;2.10;1.80;;;5.10;96.30;;;;;;5011209;28;20242;-75
2022/02/09 08:59:48;;;;;;;2.20;2.00;;;5.10;96.30;;;;;;5021666;28;20424;-75
2022/02/09 09:02:17;;;;;;;2.87;2.60;;;5.10;96.30;;;;;;5002225;28;20485;-74
2022/02/09 09:04:49;;;;;;;2.67;2.30;;;5.10;96.30;;;;;;5032233;28;20415;-75
2022/02/09 09:07:21;;;;;;;2.30;2.10;;;5.10;96.30;;;;;;5001782;28;20435;-75
2022/02/09 09:09:57;;;;;;;2.37;2.17;;;5.10;96.30;;;;;;5028734;28;20419;-75
2022/02/09 10:04:32;;;;;;;2.90;2.60;;;5.20;96.30;;;;;;5033092;28;20489;-73
2022/02/09 10:32:51;;;;;;;2.43;1.90;;;5.80;96.30;;;;;;5032741;28;20430;-73
2022/02/09 10:35:37;;;;;;;1.97;1.87;;;5.80;96.30;;;;;;5034247;28;20446;-73
2022/02/09 10:38:33;;;;;;;3.63;2.40;;;5.80;96.30;;;;;;5032173;28;20456;-75
2022/02/09 10:41:30;;;;;;;2.30;1.90;;;5.90;96.30;;;;;;5034471;28;20481;-74
2022/02/09 10:44:07;;;;;;;2.83;2.20;;;5.80;96.30;;;;;;5014204;28;20467;-76
2022/02/09 10:46:48;;;;;;;3.50;2.53;;;5.80;96.30;;;;;;5034653;28;20409;-74
2022/02/09 10:49:17;;;;;;;3.13;2.13;;;5.80;96.30;;;;;;5031757;28;20415;-74
2022/02/09 10:54:26;;;;;;;1.80;1.70;;;5.80;96.30;;;;;;5030251;28;20520;-75
2022/02/09 10:56:57;;;;;;;2.40;2.20;;;5.90;96.30;;;;;;5054279;28;20487;-75
2022/02/09 10:59:25;;;;;;;2.27;2.07;;;5.90;96.30;;;;;;5042304;28;20399;-75
2022/02/09 11:01:53;;;;;;;3.43;2.60;;;6.00;96.30;;;;;;5034474;28;20437;-76
2022/02/09 11:04:19;;;;;;;2.53;2.00;;;6.00;96.30;;;;;;5034480;28;20412;-77
2022/02/09 11:06:46;;;;;;;2.93;2.50;;;5.90;96.30;;;;;;5006275;28;20888;-77
2022/02/09 11:09:15;;;;;;;2.63;2.10;;;6.00;96.30;;;;;;5019465;28;20441;-77
2022/02/09 11:11:42;;;;;;;2.67;2.30;;;6.10;96.30;;;;;;5026986;28;20438;-75
2022/02/09 11:14:15;;;;;;;1.97;1.63;;;6.10;96.30;;;;;;5042239;28;20460;-75
2022/02/09 11:16:42;;;;;;;2.37;2.17;;;6.20;96.30;;;;;;5036396;28;20506;-75
2022/02/09 11:19:09;;;;;;;2.20;1.77;;;6.30;96.30;;;;;;5007861;28;20526;-79
2022/02/09 11:21:37;;;;;;;4.67;2.17;;;6.30;96.30;;;;;;5021605;28;20977;-76
2022/02/09 11:24:16;;;;;;;2.97;2.50;;;6.20;96.30;;;;;;5033157;28;20506;-74
2022/02/09 11:26:52;;;;;;;3.73;2.50;;;6.20;96.30;;;;;;5034121;28;20418;-79
2022/02/09 11:34:57;;;;;;;4.70;3.13;;;6.60;96.30;;;;;;5033944;28;20450;-74
2022/02/09 11:37:55;;;;;;;2.60;2.40;;;6.50;96.30;;;;;;5028204;28;20442;-76
2022/02/09 11:43:49;;;;;;;2.17;1.80;;;6.60;96.30;;;;;;5033183;28;21052;-75
2022/02/09 11:47:19;;;;;;;2.23;2.03;;;6.50;96.30;;;;;;5033800;28;20490;-75
2022/02/09 11:50:20;;;;;;;2.90;1.97;;;6.50;96.30;;;;;;5017130;28;20438;-75
2022/02/09 14:58:09;;;;;;;1.97;1.77;;;6.60;96.30;;;;;;5151686;23;20482;-78
2022/02/09 15:03:45;;;;;;;1.50;1.40;;;6.60;96.30;;;;;;5032541;28;20422;-76
2022/02/09 15:08:48;;;;;;;2.70;1.80;;;6.60;96.30;;;;;;5034384;28;20422;-78
2022/02/09 15:11:26;;;;;;;2.03;1.73;;;6.50;96.30;;;;;;5016786;28;20215;-75
2022/02/09 15:16:25;;;;;;;2.03;1.83;;;6.50;96.30;;;;;;5034254;28;20434;-76
2022/02/09 15:24:21;;;;;;;4.27;1.57;;;6.40;96.30;;;;;;5034164;28;20517;-76
2022/02/09 15:26:49;;;;;;;1.97;1.57;;;6.40;96.30;;;;;;5016149;28;20469;-75
2022/02/09 15:29:17;;;;;;;2.57;1.83;;;6.30;96.30;;;;;;5034121;28;20468;-77
2022/02/09 15:31:50;;;;;;;1.53;1.40;;;6.30;96.30;;;;;;5033950;28;20980;-75
2022/02/09 15:34:22;;;;;;;1.60;1.50;;;6.30;96.30;;;;;;5033958;28;20945;-75
2022/02/09 15:39:27;;;;;;;2.20;1.93;;;6.20;96.30;;;;;;5034247;28;20422;-75
2022/02/09 15:58:24;;;;;;;1.93;1.50;;;6.10;96.30;;;;;;5033698;28;20489;-75
2022/02/09 16:06:43;;;;;;;2.17;1.63;;;6.10;96.30;;;;;;5033445;28;20800;-76
2022/02/09 16:09:16;;;;;;;2.70;1.70;;;6.10;96.30;;;;;;5033014;28;20419;-76
2022/02/09 16:46:21;;;;;;;2.47;1.93;;;6.00;96.30;;;;;;5012635;28;20411;-76
2022/02/09 16:48:57;;;;;;;2.40;2.20;;;6.10;96.30;;;;;;5013079;28;20404;-76
2022/02/09 16:51:23;;;;;;;1.93;1.60;;;6.10;96.30;;;;;;4995191;28;20441;-75
2022/02/09 16:54:04;;;;;;;7.17;2.03;;;6.10;96.30;;;;;;5012818;28;20977;-75
2022/02/09 17:20:39;;;;;;;4.43;2.33;;;6.00;96.30;;;;;;5050444;28;20480;-76
2022/02/09 17:23:05;;;;;;;2.10;1.83;;;6.00;96.30;;;;;;5038391;28;21031;-76
2022/02/09 17:25:31;;;;;;;2.20;2.00;;;6.00;96.30;;;;;;5020873;28;20183;-76
2022/02/09 17:27:57;;;;;;;2.50;2.00;;;6.00;96.30;;;;;;5038350;28;20438;-75
2022/02/09 17:30:45;;;;;;;2.63;2.17;;;6.00;96.30;;;;;;5027531;28;20245;-75
2022/02/09 17:36:04;;;;;;;6.77;4.80;;;6.10;96.30;;;;;;5003769;28;20950;-73
2022/02/09 17:38:40;;;;;;;7.40;5.07;;;6.10;96.30;;;;;;5014477;28;20777;-74
2022/02/09 17:55:28;;;;;;;1.60;1.50;;;6.00;96.30;;;;;;5031275;28;20497;-74
2022/02/09 17:57:51;;;;;;;1.90;1.50;;;6.10;96.30;;;;;;5012252;28;20490;-75
2022/02/09 18:02:54;;;;;;;2.03;1.50;;;6.10;96.30;;;;;;5485864;23;20494;-69
2022/02/09 18:05:30;;;;;;;1.90;1.63;;;6.20;96.30;;;;;;5030031;28;20517;-68
2022/02/09 18:07:59;;;;;;;2.13;1.87;;;6.10;96.30;;;;;;5031211;28;20768;-66
2022/02/09 18:13:23;;;;;;;1.87;1.57;;;6.10;96.30;;;;;;5011463;28;20436;-66
2022/02/09 18:29:26;;;;;;;2.77;1.90;;;6.00;96.30;;;;;;5035456;28;20572;-67
2022/02/09 18:34:45;;;;;;;2.17;1.70;;;6.10;96.30;;;;;;5034833;28;20465;-68
2022/02/09 18:59:31;;;;;;;3.47;3.17;;;6.10;96.30;;;;;;5014848;28;20411;-67
2022/02/09 19:04:23;;;;;;;3.13;2.00;;;6.10;96.30;;;;;;5037178;28;20453;-67
2022/02/09 19:19:01;;;;;;;3.10;1.60;;;6.10;96.30;;;;;;5033251;28;20980;-69
2022/02/09 19:31:42;;;;;;;4.57;3.87;;;6.10;96.30;;;;;;5016907;28;20468;-76
2022/02/09 19:47:45;;;;;;;2.97;2.03;;;6.10;96.30;;;;;;5014065;28;20219;-77
2022/02/09 19:50:25;;;;;;;2.10;1.80;;;6.10;96.30;;;;;;5014058;28;20506;-76
2022/02/09 19:55:23;;;;;;;1.80;1.60;;;6.00;96.30;;;;;;5013886;28;20498;-76
2022/02/09 19:57:51;;;;;;;1.73;1.53;;;6.00;96.30;;;;;;4996314;28;20264;-76
2022/02/09 20:00:20;;;;;;;2.10;1.70;;;6.00;96.30;;;;;;4996193;28;20420;-76
2022/02/09 20:02:47;;;;;;;3.83;1.83;;;6.00;96.30;;;;;;5013488;28;20781;-76
2022/02/09 20:05:17;;;;;;;3.37;2.27;;;6.00;96.30;;;;;;4995846;28;20478;-77
2022/02/09 20:07:43;;;;;;;2.73;2.53;;;6.00;96.30;;;;;;5013946;28;20415;-76
2022/02/09 20:10:11;;;;;;;3.30;2.03;;;6.00;96.30;;;;;;5013601;28;20404;-77
2022/02/09 20:12:36;;;;;;;2.73;1.90;;;6.00;96.30;;;;;;5013521;28;20224;-76
2022/02/09 20:15:02;;;;;;;2.50;1.80;;;5.90;96.30;;;;;;5013260;28;20518;-76
2022/02/09 20:17:28;;;;;;;2.07;1.83;;;5.90;96.30;;;;;;5013434;28;20173;-77
2022/02/09 20:19:56;;;;;;;4.60;3.23;;;5.90;96.30;;;;;;5013448;28;20411;-76
2022/02/09 20:22:22;;;;;;;4.10;2.07;;;5.90;96.30;;;;;;4995523;28;20201;-77
2022/02/09 20:24:48;;;;;;;2.37;2.10;;;6.00;96.30;;;;;;4995568;28;20806;-76
2022/02/09 20:27:18;;;;;;;3.30;2.83;;;6.00;96.30;;;;;;4995622;28;20223;-76
2022/02/09 20:29:44;;;;;;;4.07;3.60;;;6.00;96.30;;;;;;5013269;28;20416;-76
2022/02/09 20:32:17;;;;;;;4.67;2.77;;;6.00;96.30;;;;;;5013155;28;20428;-76
2022/02/09 20:35:04;;;;;;;3.17;2.30;;;6.10;96.30;;;;;;5012941;28;20699;-77
2022/02/09 20:37:31;;;;;;;3.00;2.00;;;6.10;96.30;;;;;;5013043;28;20880;-77
2022/02/09 20:42:28;;;;;;;4.37;2.60;;;6.10;96.30;;;;;;5032914;28;20994;-76
2022/02/09 20:45:09;;;;;;;3.40;2.20;;;6.10;96.30;;;;;;5031184;28;20498;-76
2022/02/09 20:47:36;;;;;;;2.60;2.20;;;6.20;96.30;;;;;;5014613;28;20651;-76
2022/02/09 20:50:03;;;;;;;3.13;1.67;;;6.20;96.30;;;;;;5032609;28;20445;-76
2022/02/09 20:52:28;;;;;;;2.80;2.40;;;6.10;96.30;;;;;;5014922;28;20474;-76
2022/02/09 20:54:54;;;;;;;3.20;2.10;;;6.10;96.30;;;;;;5014516;28;20902;-77
2022/02/09 20:57:19;;;;;;;2.50;2.30;;;6.10;96.30;;;;;;5032511;28;20168;-77
2022/02/09 20:59:49;;;;;;;3.90;2.00;;;6.00;96.30;;;;;;5031952;28;20175;-76
2022/02/09 21:04:49;;;;;;;3.90;2.23;;;6.10;96.30;;;;;;5052171;28;20529;-75
2022/02/09 21:07:30;;;;;;;2.80;1.97;;;6.00;96.30;;;;;;5052277;28;20785;-75
2022/02/09 21:10:11;;;;;;;2.77;2.23;;;5.90;96.30;;;;;;5034298;28;20406;-77
2022/02/09 21:12:46;;;;;;;2.50;2.17;;;5.90;96.30;;;;;;5052158;28;20430;-77
2022/02/09 21:15:34;;;;;;;3.70;2.27;;;5.90;96.30;;;;;;5034149;28;20445;-75
2022/02/09 21:18:29;;;;;;;8.67;2.27;;;5.90;96.30;;;;;;5052096;28;20414;-75
2022/02/09 21:21:22;;;;;;;2.20;1.90;;;5.90;96.30;;;;;;5052660;28;20426;-77
2022/02/09 21:52:05;;;;;;;2.40;1.93;;;6.00;96.30;;;;;;5012274;28;20442;-76
2022/02/09 21:53:54;;;;;;;4.77;1.80;;;6.00;96.30;;;;;;5011742;28;20463;-76
2022/02/09 21:56:46;;;;;;;5.10;1.87;;;6.00;96.30;;;;;;4994343;28;20400;-77
2022/02/09 21:59:35;;;;;;;2.60;1.70;;;6.10;96.30;;;;;;5015147;28;20480;-76
2022/02/09 22:16:14;;;;;;;2.70;1.40;;;6.00;96.30;;;;;;5015946;28;20999;-78
2022/02/09 22:26:35;;;;;;;3.60;2.00;;;5.90;96.30;;;;;;5015755;28;20477;-76
2022/02/09 22:29:17;;;;;;;2.47;1.50;;;5.90;96.30;;;;;;5014876;28;20446;-76
2022/02/09 22:48:34;;;;;;;3.70;2.20;;;5.90;96.30;;;;;;5034937;28;20770;-78
2022/02/09 22:56:42;;;;;;;2.30;1.43;;;6.00;96.30;;;;;;5034886;28;20441;-76
2022/02/09 22:59:16;;;;;;;2.07;1.60;;;6.00;96.30;;;;;;5034744;28;20415;-76
2022/02/09 23:01:50;;;;;;;3.63;1.50;;;6.10;96.30;;;;;;5034624;28;20427;-77
2022/02/09 23:06:56;;;;;;;2.90;1.67;;;6.00;96.30;;;;;;5034820;28;20458;-76
2022/02/09 23:09:39;;;;;;;3.00;1.37;;;6.00;96.30;;;;;;5034253;28;20759;-76
2022/02/09 23:17:59;;;;;;;1.63;1.30;;;5.90;96.30;;;;;;5034497;28;20395;-76
2022/02/09 23:58:12;;;;;;;2.50;1.47;;;6.10;96.30;;;;;;5033964;28;20415;-77
